Time;durP1;ratioP1;P1;durP2;ratioP2;P2;SDS_P1;SDS_P2;PMS_P1;PMS_P2;Temp;Humidity;BMP_temperature;BMP_pressure;BME280_temperature;BME280_humidity;BME280_pressure;Samples;Min_cycle;Max_cycle;Signal;HPM_P1;HPM_P2
2024/01/06 00:01:22;;;;;;;1999.90;999.90;;;;;;;4.55;85.65;96336.25;5053752;28;20111;-66
2024/01/06 00:03:49;;;;;;;1999.90;999.90;;;;;;;4.45;85.25;96331.28;5053771;28;20049;-64
2024/01/06 00:06:16;;;;;;;1999.90;999.90;;;;;;;4.44;84.54;96327.81;5053665;28;20099;-67
2024/01/06 00:08:44;;;;;;;1999.90;999.90;;;;;;;4.43;83.86;96326.94;5053733;28;20049;-66
2024/01/06 00:11:11;;;;;;;1999.90;999.90;;;;;;;4.44;83.90;96333.00;5053906;28;20053;-67
2024/01/06 00:13:38;;;;;;;1999.90;999.90;;;;;;;4.52;83.59;96320.75;5053720;28;20040;-64
2024/01/06 00:16:06;;;;;;;1999.90;999.90;;;;;;;4.59;83.25;96318.06;5053378;28;20040;-64
2024/01/06 00:18:34;;;;;;;1999.90;999.90;;;;;;;4.62;83.03;96308.50;5053505;28;20049;-67
2024/01/06 00:21:02;;;;;;;1999.90;999.90;;;;;;;4.60;82.83;96318.03;5053097;28;20059;-64
2024/01/06 00:23:28;;;;;;;1999.90;999.90;;;;;;;4.62;82.50;96329.25;5053444;28;20474;-69
2024/01/06 00:25:58;;;;;;;1999.90;999.90;;;;;;;4.63;81.70;96328.34;5053347;28;20077;-67
2024/01/06 00:28:26;;;;;;;1999.90;999.90;;;;;;;4.62;81.70;96318.88;5053344;28;20045;-65
2024/01/06 00:30:53;;;;;;;1999.90;999.90;;;;;;;4.63;81.68;96305.03;5053183;28;20053;-68
2024/01/06 00:33:20;;;;;;;1999.90;999.90;;;;;;;4.54;82.49;96308.63;5053334;28;20171;-66
2024/01/06 00:35:49;;;;;;;1999.90;999.90;;;;;;;4.58;83.14;96309.44;5053244;28;20576;-66
2024/01/06 00:38:16;;;;;;;1999.90;999.90;;;;;;;4.57;82.91;96318.09;5053151;28;20052;-66
2024/01/06 00:40:43;;;;;;;1999.90;999.90;;;;;;;4.63;83.30;96324.88;5053147;28;20049;-65
2024/01/06 00:43:10;;;;;;;1999.90;999.90;;;;;;;4.67;82.87;96332.59;5053146;28;20407;-65
2024/01/06 00:45:37;;;;;;;1999.90;999.90;;;;;;;4.71;82.96;96317.84;5052987;28;20455;-63
2024/01/06 00:48:05;;;;;;;1999.90;999.90;;;;;;;4.58;83.04;96304.28;5053056;28;20127;-66
2024/01/06 00:50:32;;;;;;;1999.90;999.90;;;;;;;4.57;83.42;96297.34;5052956;28;20049;-65
2024/01/06 00:53:01;;;;;;;1999.90;999.90;;;;;;;4.61;83.44;96295.59;5053000;28;20111;-69
2024/01/06 00:55:28;;;;;;;1999.90;999.90;;;;;;;4.57;83.40;96279.22;5052919;28;20045;-69
2024/01/06 00:57:55;;;;;;;1999.90;999.90;;;;;;;4.51;83.63;96267.25;5052937;28;20095;-66
2024/01/06 01:00:22;;;;;;;1999.90;999.90;;;;;;;4.54;84.35;96262.00;5052813;28;20045;-67
2024/01/06 01:02:50;;;;;;;1999.90;999.90;;;;;;;4.60;84.49;96280.94;5052877;28;20041;-64
2024/01/06 01:05:17;;;;;;;1999.90;999.90;;;;;;;4.64;85.63;96280.81;5052825;28;20107;-66
2024/01/06 01:07:45;;;;;;;1999.90;999.90;;;;;;;4.68;85.70;96282.50;5052854;28;20055;-67
2024/01/06 01:10:14;;;;;;;1999.90;999.90;;;;;;;4.70;85.62;96295.41;5052841;28;20051;-67
2024/01/06 01:12:41;;;;;;;1999.90;999.90;;;;;;;4.76;85.21;96310.00;5052889;28;20056;-69
2024/01/06 01:15:09;;;;;;;1999.90;999.90;;;;;;;4.79;84.42;96302.16;5052864;28;20140;-65
2024/01/06 01:17:37;;;;;;;1999.90;999.90;;;;;;;4.78;84.11;96301.31;5052856;28;20045;-66
2024/01/06 01:20:05;;;;;;;1999.90;999.90;;;;;;;4.65;84.16;96298.09;5052703;28;20481;-65
2024/01/06 01:22:32;;;;;;;1999.90;999.90;;;;;;;4.62;84.44;96287.78;5052454;28;20056;-68
2024/01/06 01:25:05;;;;;;;1999.90;999.90;;;;;;;4.64;84.63;96286.00;5052637;28;20514;-67
2024/01/06 01:27:33;;;;;;;1999.90;999.90;;;;;;;4.70;84.44;96284.19;5052654;28;20095;-65
2024/01/06 01:30:01;;;;;;;1999.90;999.90;;;;;;;4.70;84.40;96269.50;5052609;28;20088;-66
2024/01/06 01:32:28;;;;;;;1999.90;999.90;;;;;;;4.70;84.07;96266.06;5052579;28;20095;-63
2024/01/06 01:34:56;;;;;;;1999.90;999.90;;;;;;;4.76;84.18;96268.53;5052683;28;20080;-62
2024/01/06 01:37:23;;;;;;;1999.90;999.90;;;;;;;4.82;83.88;96262.38;5052461;28;20483;-63
2024/01/06 01:39:50;;;;;;;1999.90;999.90;;;;;;;4.84;83.74;96270.97;5052562;28;20076;-65
2024/01/06 01:42:17;;;;;;;1999.90;999.90;;;;;;;4.88;83.22;96276.06;5052651;28;20080;-67
2024/01/06 01:44:46;;;;;;;1999.90;999.90;;;;;;;4.89;82.57;96262.22;5052540;28;20407;-67
2024/01/06 01:47:18;;;;;;;1999.90;999.90;;;;;;;4.88;82.31;96249.28;5052459;28;20047;-66
2024/01/06 01:49:46;;;;;;;1999.90;999.90;;;;;;;4.83;82.07;96243.34;5052432;28;20084;-67
2024/01/06 01:52:14;;;;;;;1999.90;999.90;;;;;;;4.84;82.37;96260.63;5052397;28;20106;-67
2024/01/06 01:54:41;;;;;;;1999.90;999.90;;;;;;;4.78;81.88;96241.69;5052291;28;20136;-63
2024/01/06 01:57:08;;;;;;;1999.90;999.90;;;;;;;4.76;81.66;96252.97;5052526;28;20053;-67
2024/01/06 01:59:36;;;;;;;1999.90;999.90;;;;;;;4.72;81.65;96240.97;5052317;28;20048;-70
2024/01/06 02:02:05;;;;;;;1999.90;999.90;;;;;;;4.72;81.66;96246.16;5052300;28;20098;-66
2024/01/06 02:04:33;;;;;;;1999.90;999.90;;;;;;;4.74;81.29;96241.78;5052329;28;20091;-64
2024/01/06 02:07:01;;;;;;;1999.90;999.90;;;;;;;4.59;81.04;96220.47;5052325;28;20404;-67
2024/01/06 02:09:29;;;;;;;1999.90;999.90;;;;;;;4.45;81.45;96220.72;5052236;28;20076;-67
2024/01/06 02:11:57;;;;;;;1999.90;999.90;;;;;;;4.45;81.01;96219.88;5052593;28;20049;-67
2024/01/06 02:14:25;;;;;;;1999.90;999.90;;;;;;;4.40;81.24;96219.97;5055820;28;20044;-63
2024/01/06 02:16:52;;;;;;;1999.90;999.90;;;;;;;4.40;82.21;96220.81;5055887;28;20045;-67
2024/01/06 02:19:21;;;;;;;1999.90;999.90;;;;;;;4.40;82.17;96212.19;5055733;28;20403;-62
2024/01/06 02:21:53;;;;;;;1999.90;999.90;;;;;;;4.37;81.77;96226.03;5055420;28;20518;-65
2024/01/06 02:24:20;;;;;;;1999.90;999.90;;;;;;;4.31;81.68;96215.81;5055831;28;20041;-65
2024/01/06 02:26:47;;;;;;;1999.90;999.90;;;;;;;4.29;81.64;96210.66;5055693;28;20049;-62
2024/01/06 02:29:14;;;;;;;1999.90;999.90;;;;;;;4.33;81.27;96202.84;5055511;28;20076;-66
2024/01/06 02:31:41;;;;;;;1999.90;999.90;;;;;;;4.24;81.07;96201.28;5055562;28;20048;-62
2024/01/06 02:34:08;;;;;;;1999.90;999.90;;;;;;;4.18;81.52;96209.97;5055528;28;20041;-65
2024/01/06 02:36:35;;;;;;;1999.90;999.90;;;;;;;4.21;82.23;96199.56;5055297;28;20562;-65
2024/01/06 02:39:19;;;;;;;1999.90;999.90;;;;;;;4.27;82.56;96214.13;5055244;28;20084;-63
2024/01/06 02:41:46;;;;;;;1999.90;999.90;;;;;;;4.29;82.34;96220.16;5055291;28;20049;-65
2024/01/06 02:44:14;;;;;;;1999.90;999.90;;;;;;;4.26;82.57;96217.63;5055270;28;20049;-68
2024/01/06 02:46:41;;;;;;;1999.90;999.90;;;;;;;4.32;82.15;96229.59;5055233;28;20392;-65
2024/01/06 02:49:08;;;;;;;1999.90;999.90;;;;;;;4.31;82.00;96218.41;5055112;28;20499;-69
2024/01/06 02:51:35;;;;;;;1999.90;999.90;;;;;;;4.22;81.87;96221.16;5055012;28;20055;-65
2024/01/06 02:54:03;;;;;;;1999.90;999.90;;;;;;;4.21;82.03;96235.00;5055082;28;20041;-65
2024/01/06 02:56:31;;;;;;;1999.90;999.90;;;;;;;4.18;82.26;96207.41;5054988;28;20048;-65
2024/01/06 02:58:59;;;;;;;1999.90;999.90;;;;;;;4.07;83.69;96212.78;5055088;28;20471;-69
2024/01/06 03:01:26;;;;;;;1999.90;999.90;;;;;;;4.09;83.64;96210.16;5055108;28;20052;-68
2024/01/06 03:03:53;;;;;;;1999.90;999.90;;;;;;;4.09;83.88;96205.81;5054843;28;20479;-66
2024/01/06 03:06:20;;;;;;;1999.90;999.90;;;;;;;4.13;83.88;96204.88;5054848;28;20071;-68
2024/01/06 03:08:47;;;;;;;1999.90;999.90;;;;;;;4.09;84.14;96218.78;5054667;28;20103;-65
2024/01/06 03:11:14;;;;;;;1999.90;999.90;;;;;;;4.10;83.53;96211.88;5054770;28;20053;-64
2024/01/06 03:13:43;;;;;;;1999.90;999.90;;;;;;;4.12;83.38;96205.78;5054728;28;20449;-67
2024/01/06 03:16:12;;;;;;;1999.90;999.90;;;;;;;4.13;83.28;96204.88;5054753;28;20487;-65
2024/01/06 03:18:39;;;;;;;1999.90;999.90;;;;;;;4.12;83.59;96207.53;5054697;28;20056;-64
2024/01/06 03:21:06;;;;;;;1999.90;999.90;;;;;;;4.10;83.33;96212.72;5054364;28;20132;-67
2024/01/06 03:23:34;;;;;;;1999.90;999.90;;;;;;;4.05;82.99;96217.13;5053635;28;20045;-66
2024/01/06 03:26:07;;;;;;;1999.90;999.90;;;;;;;4.01;83.08;96198.19;5054601;28;20045;-66
2024/01/06 03:28:34;;;;;;;1999.90;999.90;;;;;;;4.04;83.07;96203.31;5054447;28;20057;-68
2024/01/06 03:31:02;;;;;;;1999.90;999.90;;;;;;;4.07;82.72;96202.44;5054546;28;20128;-66
2024/01/06 03:33:29;;;;;;;1999.90;999.90;;;;;;;3.99;82.64;96201.69;5054503;28;20053;-69
2024/01/06 03:35:56;;;;;;;1999.90;999.90;;;;;;;3.97;82.65;96203.47;5054335;28;20044;-65
2024/01/06 03:38:23;;;;;;;1999.90;999.90;;;;;;;3.97;82.98;96200.88;5054289;28;20553;-68
2024/01/06 03:40:50;;;;;;;1999.90;999.90;;;;;;;4.00;82.61;96199.06;5054249;28;20041;-68
2024/01/06 03:43:17;;;;;;;1999.90;999.90;;;;;;;4.02;83.11;96201.63;5054274;28;20094;-69
2024/01/06 03:45:44;;;;;;;1999.90;999.90;;;;;;;3.93;83.19;96197.47;5054164;28;20076;-68
2024/01/06 03:48:13;;;;;;;1999.90;999.90;;;;;;;3.95;83.48;96198.31;5054097;28;20095;-66
2024/01/06 03:50:40;;;;;;;1999.90;999.90;;;;;;;3.95;82.63;96192.28;5053970;28;20045;-65
2024/01/06 03:53:07;;;;;;;1999.90;999.90;;;;;;;3.88;82.67;96181.16;5054087;28;20061;-64
2024/01/06 03:55:34;;;;;;;1999.90;999.90;;;;;;;3.74;83.52;96176.22;5054062;28;20049;-63
2024/01/06 03:58:01;;;;;;;1999.90;999.90;;;;;;;3.70;84.17;96183.19;5054091;28;20041;-66
2024/01/06 04:00:28;;;;;;;1999.90;999.90;;;;;;;3.59;84.65;96180.78;5053856;28;20052;-66
2024/01/06 04:02:55;;;;;;;1999.90;999.90;;;;;;;3.63;84.55;96191.91;5053719;28;20068;-65
2024/01/06 04:05:23;;;;;;;1999.90;999.90;;;;;;;3.64;84.14;96198.78;5054042;28;20158;-66
2024/01/06 04:07:50;;;;;;;1999.90;999.90;;;;;;;3.64;84.33;96193.63;5053801;28;20059;-67
2024/01/06 04:10:18;;;;;;;1999.90;999.90;;;;;;;3.55;84.08;96197.22;5053724;28;20049;-63
2024/01/06 04:12:45;;;;;;;1999.90;999.90;;;;;;;3.60;83.89;96187.66;5053703;28;20088;-65
2024/01/06 04:15:12;;;;;;;1999.90;999.90;;;;;;;3.55;83.55;96194.63;5053473;28;20049;-64
2024/01/06 04:17:39;;;;;;;1999.90;999.90;;;;;;;3.50;83.82;96207.66;5053578;28;20128;-69
2024/01/06 04:20:07;;;;;;;1999.90;999.90;;;;;;;3.54;83.89;96206.72;5053661;28;20049;-66
2024/01/06 04:22:36;;;;;;;1999.90;999.90;;;;;;;3.52;83.59;96184.31;5053265;28;20499;-64
2024/01/06 04:25:03;;;;;;;1999.90;999.90;;;;;;;3.35;84.11;96193.22;5053465;28;20075;-66
2024/01/06 04:27:30;;;;;;;1999.90;999.90;;;;;;;3.21;84.37;96182.19;5053458;28;20147;-69
2024/01/06 04:29:58;;;;;;;1999.90;999.90;;;;;;;3.25;85.17;96186.47;5053367;28;20396;-67
2024/01/06 04:32:24;;;;;;;1999.90;999.90;;;;;;;3.26;84.55;96181.28;5053264;28;20041;-65
2024/01/06 04:34:52;;;;;;;1999.90;999.90;;;;;;;3.23;84.72;96185.63;5052927;28;20049;-66
2024/01/06 04:37:19;;;;;;;1999.90;999.90;;;;;;;3.25;84.25;96187.31;5053182;28;20128;-66
2024/01/06 04:39:47;;;;;;;1999.90;999.90;;;;;;;3.20;84.33;96186.53;5053087;28;20483;-65
2024/01/06 04:42:14;;;;;;;1999.90;999.90;;;;;;;3.19;85.15;96199.47;5053002;28;20132;-66
2024/01/06 04:44:41;;;;;;;1999.90;999.90;;;;;;;3.25;85.24;96218.34;5053050;28;20483;-66
2024/01/06 04:47:08;;;;;;;1999.90;999.90;;;;;;;3.22;84.30;96213.19;5053032;28;20059;-67
2024/01/06 04:49:35;;;;;;;1999.90;999.90;;;;;;;3.19;84.65;96213.25;5053128;28;20049;-64
2024/01/06 04:52:02;;;;;;;1999.90;999.90;;;;;;;3.10;85.58;96211.66;5053271;28;20053;-68
2024/01/06 04:54:29;;;;;;;1999.90;999.90;;;;;;;3.09;86.06;96217.69;5053025;28;20049;-68
2024/01/06 04:56:59;;;;;;;1999.90;999.90;;;;;;;3.14;86.50;96215.06;5053018;28;20055;-64
2024/01/06 04:59:26;;;;;;;1999.90;999.90;;;;;;;3.10;86.21;96201.31;5053012;28;20093;-67
2024/01/06 05:01:54;;;;;;;1999.90;999.90;;;;;;;3.03;85.96;96205.72;5052893;28;20140;-67
2024/01/06 05:04:21;;;;;;;1999.90;999.90;;;;;;;3.09;86.62;96203.91;5052962;28;20053;-65
2024/01/06 05:06:49;;;;;;;1999.90;999.90;;;;;;;3.07;86.26;96198.75;5052883;28;20041;-64
2024/01/06 05:09:16;;;;;;;1999.90;999.90;;;;;;;3.01;86.13;96201.44;5052879;28;20075;-64
2024/01/06 05:11:44;;;;;;;1999.90;999.90;;;;;;;3.03;86.20;96200.56;5052785;28;20103;-68
2024/01/06 05:14:14;;;;;;;1999.90;999.90;;;;;;;3.06;86.75;96209.13;5052995;28;20049;-67
2024/01/06 05:16:42;;;;;;;1999.90;999.90;;;;;;;3.11;87.13;96200.44;5052962;28;20045;-69
2024/01/06 05:19:09;;;;;;;1999.90;999.90;;;;;;;3.14;87.18;96202.13;5052773;28;20045;-66
2024/01/06 05:21:38;;;;;;;1999.90;999.90;;;;;;;3.12;87.50;96201.28;5052419;28;20124;-69
2024/01/06 05:24:05;;;;;;;1999.90;999.90;;;;;;;3.07;87.32;96203.09;5052693;28;20059;-65
2024/01/06 05:26:34;;;;;;;1999.90;999.90;;;;;;;3.14;87.90;96191.78;5052646;28;20442;-63
2024/01/06 05:29:01;;;;;;;1999.90;999.90;;;;;;;3.12;87.41;96191.81;5052766;28;20045;-65
2024/01/06 05:31:30;;;;;;;1999.90;999.90;;;;;;;3.11;86.36;96202.16;5052842;28;20041;-68
2024/01/06 05:33:57;;;;;;;1999.90;999.90;;;;;;;3.05;86.84;96195.34;5052645;28;20136;-63
2024/01/06 05:36:25;;;;;;;1999.90;999.90;;;;;;;3.04;87.20;96201.38;5052697;28;20053;-65
2024/01/06 05:38:52;;;;;;;1999.90;999.90;;;;;;;3.00;87.17;96191.97;5052593;28;20120;-65
2024/01/06 05:41:19;;;;;;;1999.90;999.90;;;;;;;2.93;86.91;96190.34;5052539;28;20107;-67
2024/01/06 05:43:46;;;;;;;1999.90;999.90;;;;;;;2.84;87.06;96181.00;5052432;28;20135;-65
2024/01/06 05:46:23;;;;;;;1999.90;999.90;;;;;;;2.92;87.29;96184.31;5052647;28;20045;-65
2024/01/06 05:48:52;;;;;;;1999.90;999.90;;;;;;;2.90;86.90;96191.25;5055918;28;20501;-68
2024/01/06 05:51:19;;;;;;;1999.90;999.90;;;;;;;2.93;86.48;96214.47;5056426;28;20049;-67
2024/01/06 05:53:48;;;;;;;1999.90;999.90;;;;;;;2.95;86.66;96223.03;5056243;28;20053;-68
2024/01/06 05:56:24;;;;;;;1999.90;999.90;;;;;;;2.97;86.47;96229.06;5056122;28;20076;-67
2024/01/06 05:58:51;;;;;;;1999.90;999.90;;;;;;;2.98;87.14;96225.59;5056102;28;20049;-63
2024/01/06 06:01:19;;;;;;;1999.90;999.90;;;;;;;2.98;88.16;96229.91;5056144;28;20045;-67
2024/01/06 06:03:46;;;;;;;1999.90;999.90;;;;;;;2.95;87.67;96227.38;5055899;28;20071;-69
2024/01/06 06:06:15;;;;;;;1999.90;999.90;;;;;;;3.00;88.81;96223.84;5056259;28;20053;-66
2024/01/06 06:08:43;;;;;;;1999.90;999.90;;;;;;;3.09;89.14;96216.84;5055987;28;20056;-63
2024/01/06 06:11:11;;;;;;;1999.90;999.90;;;;;;;3.12;88.76;96216.78;5055919;28;20487;-65
2024/01/06 06:13:40;;;;;;;1999.90;999.90;;;;;;;3.16;88.96;96213.28;5055930;28;20763;-67
2024/01/06 06:16:08;;;;;;;1999.90;999.90;;;;;;;3.16;89.10;96218.47;5055764;28;20081;-64
2024/01/06 06:18:35;;;;;;;1999.90;999.90;;;;;;;3.23;89.65;96216.66;5055996;28;20067;-68
2024/01/06 06:21:04;;;;;;;1999.90;999.90;;;;;;;3.20;90.23;96208.94;5055606;28;20565;-63
2024/01/06 06:23:32;;;;;;;1999.90;999.90;;;;;;;3.37;90.76;96198.38;5055700;28;20053;-64
2024/01/06 06:26:00;;;;;;;1999.90;999.90;;;;;;;3.49;90.62;96187.81;5055720;28;20084;-65
2024/01/06 06:28:28;;;;;;;1999.90;999.90;;;;;;;3.67;90.51;96199.63;5055496;28;20487;-63
2024/01/06 06:30:55;;;;;;;1999.90;999.90;;;;;;;3.96;90.51;96199.16;5055642;28;20128;-64
2024/01/06 06:33:22;;;;;;;1999.90;999.90;;;;;;;4.10;89.54;96201.50;5055438;28;20049;-69
2024/01/06 06:35:49;;;;;;;1999.90;999.90;;;;;;;4.17;89.04;96203.97;5055621;28;20553;-64
2024/01/06 06:38:17;;;;;;;1999.90;999.90;;;;;;;4.27;87.82;96201.19;5055515;28;20440;-65
2024/01/06 06:40:46;;;;;;;1999.90;999.90;;;;;;;4.29;86.82;96200.31;5055384;28;20057;-64
2024/01/06 06:43:14;;;;;;;1999.90;999.90;;;;;;;4.25;86.24;96201.22;5055254;28;20048;-66
2024/01/06 06:45:41;;;;;;;1999.90;999.90;;;;;;;4.21;86.18;96202.16;5055207;28;20086;-65
2024/01/06 06:48:09;;;;;;;1999.90;999.90;;;;;;;4.24;85.99;96199.53;5055267;28;20453;-66
2024/01/06 06:50:37;;;;;;;1999.90;999.90;;;;;;;4.26;85.48;96197.78;5055212;28;20107;-67
2024/01/06 06:53:05;;;;;;;1999.90;999.90;;;;;;;4.23;86.21;96204.72;5055097;28;20087;-69
2024/01/06 06:55:32;;;;;;;1999.90;999.90;;;;;;;4.33;86.62;96202.84;5055186;28;20051;-69
2024/01/06 06:58:03;;;;;;;1999.90;999.90;;;;;;;4.54;87.70;96198.97;5054834;28;20056;-69
2024/01/06 07:00:31;;;;;;;1999.90;999.90;;;;;;;4.74;87.25;96197.72;5055130;28;20045;-67
2024/01/06 07:02:59;;;;;;;1999.90;999.90;;;;;;;4.84;87.04;96199.25;5054921;28;20049;-64
2024/01/06 07:05:27;;;;;;;1999.90;999.90;;;;;;;4.98;86.72;96193.78;5055010;28;20111;-66
2024/01/06 07:07:55;;;;;;;1999.90;999.90;;;;;;;5.21;86.76;96195.00;5054778;28;20461;-67
2024/01/06 07:10:24;;;;;;;1999.90;999.90;;;;;;;5.74;87.22;96187.75;5054953;28;20140;-66
2024/01/06 07:12:52;;;;;;;1999.90;999.90;;;;;;;6.31;85.30;96193.28;5054737;28;20372;-69
2024/01/06 07:15:21;;;;;;;1999.90;999.90;;;;;;;6.62;82.28;96194.22;5054714;28;20427;-65
2024/01/06 07:17:48;;;;;;;1999.90;999.90;;;;;;;6.96;80.90;96185.44;5054780;28;20053;-68
2024/01/06 07:20:16;;;;;;;1999.90;999.90;;;;;;;7.37;78.68;96182.47;5054690;28;20131;-66
2024/01/06 07:22:43;;;;;;;1999.90;999.90;;;;;;;7.60;77.42;96178.31;5054705;28;20491;-66
2024/01/06 07:25:11;;;;;;;1999.90;999.90;;;;;;;7.61;76.16;96173.97;5054702;28;20434;-64
2024/01/06 07:27:39;;;;;;;1999.90;999.90;;;;;;;7.56;75.68;96180.16;5054479;28;20135;-65
2024/01/06 07:30:09;;;;;;;1999.90;999.90;;;;;;;7.48;74.92;96176.09;5054450;28;20128;-68
2024/01/06 07:32:38;;;;;;;1999.90;999.90;;;;;;;7.38;74.99;96186.81;5054544;28;20132;-67
2024/01/06 07:35:06;;;;;;;1999.90;999.90;;;;;;;7.24;75.52;96192.44;5054364;28;20049;-67
2024/01/06 07:37:34;;;;;;;1999.90;999.90;;;;;;;7.10;77.44;96184.19;5054349;28;20494;-66
2024/01/06 07:40:02;;;;;;;1999.90;999.90;;;;;;;7.03;78.26;96179.16;5054108;28;20052;-67
2024/01/06 07:42:29;;;;;;;1999.90;999.90;;;;;;;7.00;78.33;96170.59;5054139;28;20045;-64
2024/01/06 07:44:57;;;;;;;1999.90;999.90;;;;;;;6.94;77.83;96176.81;5054306;28;20047;-67
2024/01/06 07:47:26;;;;;;;1999.90;999.90;;;;;;;6.93;77.57;96175.97;5054283;28;20048;-68
2024/01/06 07:49:57;;;;;;;1999.90;999.90;;;;;;;6.87;77.45;96188.31;5054077;28;20076;-64
2024/01/06 07:52:24;;;;;;;1999.90;999.90;;;;;;;6.85;77.19;96188.34;5054126;28;20392;-63
2024/01/06 07:54:51;;;;;;;1999.90;999.90;;;;;;;6.85;77.04;96183.16;5053983;28;20115;-68
2024/01/06 07:57:18;;;;;;;1999.90;999.90;;;;;;;6.88;77.04;96187.41;5053974;28;20123;-65
2024/01/06 07:59:47;;;;;;;1999.90;999.90;;;;;;;6.99;76.63;96185.38;5053820;28;20384;-64
2024/01/06 08:02:14;;;;;;;1999.90;999.90;;;;;;;7.10;76.60;96176.38;5054027;28;20041;-66
2024/01/06 08:04:41;;;;;;;1999.90;999.90;;;;;;;7.27;76.17;96176.72;5053795;28;20045;-69
2024/01/06 08:07:10;;;;;;;1999.90;999.90;;;;;;;7.32;75.33;96158.38;5053766;28;20045;-65
2024/01/06 08:09:37;;;;;;;1999.90;999.90;;;;;;;7.49;73.37;96154.38;5053214;28;20079;-66
2024/01/06 08:12:05;;;;;;;1999.90;999.90;;;;;;;7.62;73.06;96165.25;5053661;28;20049;-68
2024/01/06 08:14:32;;;;;;;1999.90;999.90;;;;;;;7.73;72.30;96157.09;5053591;28;20449;-65
2024/01/06 08:16:59;;;;;;;1999.90;999.90;;;;;;;7.87;72.21;96159.22;5053526;28;20048;-69
2024/01/06 08:19:28;;;;;;;1999.90;999.90;;;;;;;7.94;71.96;96151.16;5053443;28;20052;-65
2024/01/06 08:21:55;;;;;;;1999.90;999.90;;;;;;;8.05;71.52;96160.38;5053272;28;20080;-65
2024/01/06 08:24:24;;;;;;;1999.90;999.90;;;;;;;8.14;71.57;96157.47;5053389;28;20182;-68
2024/01/06 08:26:51;;;;;;;1999.90;999.90;;;;;;;8.16;71.91;96160.84;5053507;28;20069;-69
2024/01/06 08:29:19;;;;;;;1999.90;999.90;;;;;;;8.19;72.42;96162.53;5052204;28;20462;-65
2024/01/06 08:31:51;;;;;;;1999.90;999.90;;;;;;;8.21;72.33;96163.28;5053339;28;20453;-63
2024/01/06 08:34:19;;;;;;;1999.90;999.90;;;;;;;8.17;72.28;96161.72;5053205;28;20094;-64
2024/01/06 08:36:47;;;;;;;1999.90;999.90;;;;;;;8.15;72.56;96158.28;5053348;28;20041;-67
2024/01/06 08:39:14;;;;;;;1999.90;999.90;;;;;;;8.08;71.70;96155.06;5053117;28;20052;-65
2024/01/06 08:41:44;;;;;;;1999.90;999.90;;;;;;;8.08;71.96;96157.66;5053155;28;20045;-67
2024/01/06 08:44:15;;;;;;;1999.90;999.90;;;;;;;8.14;71.86;96161.81;5053106;28;20132;-68
2024/01/06 08:46:42;;;;;;;1999.90;999.90;;;;;;;8.21;71.76;96158.94;5053198;28;20056;-68
2024/01/06 08:49:10;;;;;;;1999.90;999.90;;;;;;;8.30;71.33;96164.72;5053039;28;20055;-67
2024/01/06 08:51:37;;;;;;;1999.90;999.90;;;;;;;8.39;71.21;96159.19;5053063;28;20060;-69
2024/01/06 08:54:05;;;;;;;1999.90;999.90;;;;;;;8.53;71.38;96153.50;5053120;28;20124;-68
2024/01/06 08:56:37;;;;;;;1999.90;999.90;;;;;;;8.75;71.29;96159.72;5053196;28;20474;-70
2024/01/06 08:59:09;;;;;;;1999.90;999.90;;;;;;;9.06;70.61;96158.59;5052990;28;20049;-69
2024/01/06 09:01:38;;;;;;;1999.90;999.90;;;;;;;9.35;69.76;96154.84;5052823;28;20053;-67
2024/01/06 09:04:06;;;;;;;1999.90;999.90;;;;;;;9.73;68.76;96142.91;5052916;28;20052;-62
2024/01/06 09:06:35;;;;;;;1999.90;999.90;;;;;;;10.15;66.99;96149.03;5052934;28;20467;-69
2024/01/06 09:09:03;;;;;;;1999.90;999.90;;;;;;;10.44;66.02;96154.75;5052830;28;20045;-67
2024/01/06 09:11:31;;;;;;;1999.90;999.90;;;;;;;10.49;65.07;96154.59;5052831;28;20122;-64
2024/01/06 09:13:59;;;;;;;1999.90;999.90;;;;;;;10.68;64.91;96149.38;5052898;28;20502;-67
2024/01/06 09:16:28;;;;;;;1999.90;999.90;;;;;;;10.80;64.17;96155.84;5052876;28;20049;-67
2024/01/06 09:18:55;;;;;;;1999.90;999.90;;;;;;;10.94;63.60;96147.38;5052842;28;20164;-68
2024/01/06 09:21:22;;;;;;;1999.90;999.90;;;;;;;11.02;62.92;96144.41;5053704;28;20049;-67
2024/01/06 09:23:49;;;;;;;1999.90;999.90;;;;;;;11.04;63.08;96139.06;5056851;28;20049;-67
2024/01/06 09:26:17;;;;;;;1999.90;999.90;;;;;;;11.04;62.95;96139.06;5056834;28;20048;-66
2024/01/06 09:28:44;;;;;;;1999.90;999.90;;;;;;;11.07;63.00;96142.41;5056960;28;20045;-69
2024/01/06 09:31:12;;;;;;;1999.90;999.90;;;;;;;11.08;62.78;96138.88;5056858;28;20049;-68
2024/01/06 09:33:41;;;;;;;1999.90;999.90;;;;;;;11.03;62.67;96133.00;5056705;28;20143;-68
2024/01/06 09:36:12;;;;;;;1999.90;999.90;;;;;;;10.92;63.38;96130.88;5056735;28;20441;-64
2024/01/06 09:38:43;;;;;;;1999.90;999.90;;;;;;;10.87;64.00;96123.25;5056668;28;20053;-65
2024/01/06 09:41:12;;;;;;;1999.90;999.90;;;;;;;10.78;64.30;96118.44;5056669;28;20132;-66
2024/01/06 09:43:39;;;;;;;1999.90;999.90;;;;;;;10.74;64.27;96109.88;5056415;28;20049;-65
2024/01/06 09:46:17;;;;;;;1999.90;999.90;;;;;;;10.76;64.69;96112.44;5056474;28;20453;-66
2024/01/06 09:48:49;;;;;;;1999.90;999.90;;;;;;;10.81;64.92;96109.59;5056244;28;20045;-68
2024/01/06 09:51:17;;;;;;;1999.90;999.90;;;;;;;10.89;64.63;96096.19;5056370;28;20045;-62
2024/01/06 09:53:50;;;;;;;1999.90;999.90;;;;;;;10.96;63.96;96087.94;5056326;28;20080;-66
2024/01/06 09:56:18;;;;;;;1999.90;999.90;;;;;;;11.01;63.66;96076.44;5056195;28;20076;-64
2024/01/06 09:58:46;;;;;;;1999.90;999.90;;;;;;;11.02;63.44;96068.50;5056186;28;20075;-67
2024/01/06 10:01:14;;;;;;;1999.90;999.90;;;;;;;11.07;63.87;96071.75;5056254;28;20166;-69
2024/01/06 10:03:41;;;;;;;1999.90;999.90;;;;;;;11.07;64.31;96063.03;5056151;28;20135;-67
2024/01/06 10:06:10;;;;;;;1999.90;999.90;;;;;;;11.13;64.38;96062.75;5056227;28;20380;-66
2024/01/06 10:08:40;;;;;;;1999.90;999.90;;;;;;;11.24;64.84;96057.00;5056040;28;20103;-69
2024/01/06 10:11:11;;;;;;;1999.90;999.90;;;;;;;11.34;65.17;96054.78;5055983;28;20045;-66
2024/01/06 10:13:39;;;;;;;1999.90;999.90;;;;;;;11.44;65.87;96042.09;5055945;28;20048;-66
2024/01/06 10:16:10;;;;;;;1999.90;999.90;;;;;;;11.49;66.52;96034.84;5055884;28;20103;-69
2024/01/06 10:18:38;;;;;;;1999.90;999.90;;;;;;;11.65;67.66;96039.31;5054710;28;20461;-65
2024/01/06 10:21:06;;;;;;;1999.90;999.90;;;;;;;11.71;68.08;96044.25;5055601;28;20075;-67
2024/01/06 10:23:36;;;;;;;1999.90;999.90;;;;;;;11.78;68.03;96047.41;5055750;28;20484;-67
2024/01/06 10:26:04;;;;;;;1999.90;999.90;;;;;;;11.87;68.46;96041.69;5055651;28;20051;-63
2024/01/06 10:28:32;;;;;;;1999.90;999.90;;;;;;;11.96;68.72;96035.13;5055629;28;20049;-65
2024/01/06 10:30:59;;;;;;;1999.90;999.90;;;;;;;12.04;68.51;96032.13;5055481;28;20491;-68
2024/01/06 10:33:28;;;;;;;1999.90;999.90;;;;;;;12.09;68.30;96023.13;5054999;28;20458;-63
2024/01/06 10:35:57;;;;;;;1999.90;999.90;;;;;;;12.17;68.23;96024.47;5055430;28;20419;-66
2024/01/06 10:38:27;;;;;;;1999.90;999.90;;;;;;;12.23;68.25;96016.28;5055480;28;20124;-65
2024/01/06 10:40:59;;;;;;;1999.90;999.90;;;;;;;12.26;68.20;96013.50;5055530;28;20049;-67
2024/01/06 10:43:28;;;;;;;1999.90;999.90;;;;;;;12.35;67.89;96010.41;5055346;28;20052;-65
2024/01/06 10:45:59;;;;;;;1999.90;999.90;;;;;;;12.41;68.21;96014.47;5055417;28;20049;-69
2024/01/06 10:48:27;;;;;;;1999.90;999.90;;;;;;;12.45;68.38;96013.38;5055430;28;20048;-65
2024/01/06 10:50:56;;;;;;;1999.90;999.90;;;;;;;12.50;68.77;95997.38;5055281;28;20099;-68
2024/01/06 10:53:25;;;;;;;1999.90;999.90;;;;;;;12.49;68.67;95999.16;5055218;28;20133;-64
2024/01/06 10:55:53;;;;;;;1999.90;999.90;;;;;;;12.57;68.58;96003.97;5055095;28;20081;-65
2024/01/06 10:58:23;;;;;;;1999.90;999.90;;;;;;;12.62;68.64;95990.63;5055040;28;20053;-67
2024/01/06 11:00:50;;;;;;;1999.90;999.90;;;;;;;12.64;68.87;95991.38;5055052;28;20136;-69
2024/01/06 11:03:20;;;;;;;1999.90;999.90;;;;;;;12.69;68.60;95975.38;5055051;28;20049;-68